Time;durP1;ratioP1;P1;durP2;ratioP2;P2;SDS_P1;SDS_P2;PMS_P1;PMS_P2;Temp;Humidity;BMP_temperature;BMP_pressure;BME280_temperature;BME280_humidity;BME280_pressure;Samples;Min_cycle;Max_cycle;Signal;HPM_P1;HPM_P2
2021/10/28 00:14:29;;;;;;;47.93;23.92;;;;;;;1.99;95.04;100239.45;1679376;85;21002;-67
2021/10/28 00:16:58;;;;;;;51.58;26.02;;;;;;;1.98;95.32;100256.23;1679277;85;21024;-68
2021/10/28 00:19:27;;;;;;;59.30;28.12;;;;;;;1.97;95.52;100245.11;1677905;85;21500;-67
2021/10/28 00:21:53;;;;;;;61.58;30.72;;;;;;;1.96;95.55;100233.16;1669594;85;20910;-67
2021/10/28 00:24:19;;;;;;;63.17;32.30;;;;;;;2.01;96.64;100224.31;1677354;85;23302;-67
2021/10/28 00:26:47;;;;;;;66.82;31.25;;;;;;;2.10;97.73;100218.80;1672135;85;21024;-67
2021/10/28 00:29:17;;;;;;;53.25;28.65;;;;;;;2.19;98.11;100221.39;1679477;85;21532;-67
2021/10/28 00:31:45;;;;;;;55.67;28.20;;;;;;;2.23;97.92;100226.61;1679357;84;20969;-67
2021/10/28 00:34:13;;;;;;;52.35;27.77;;;;;;;2.22;97.44;100231.75;1679348;85;20874;-67
2021/10/28 00:36:40;;;;;;;56.45;28.17;;;;;;;2.21;97.22;100231.45;1679300;85;21201;-67
2021/10/28 00:39:08;;;;;;;64.30;31.87;;;;;;;2.15;96.95;100227.84;1672202;85;21509;-68
2021/10/28 00:41:36;;;;;;;62.13;31.55;;;;;;;2.17;97.56;100224.34;1679358;85;20874;-67
2021/10/28 00:44:04;;;;;;;60.95;30.15;;;;;;;2.23;98.08;100219.84;1679502;85;20953;-68
2021/10/28 00:46:33;;;;;;;57.73;28.70;;;;;;;2.28;98.38;100224.00;1677780;85;21061;-68
2021/10/28 00:49:01;;;;;;;48.45;24.52;;;;;;;2.33;98.74;100222.70;1674388;85;21533;-68
2021/10/28 00:51:29;;;;;;;62.95;31.82;;;;;;;2.36;98.78;100231.69;1679177;85;20993;-68
2021/10/28 00:53:57;;;;;;;53.98;29.95;;;;;;;2.45;99.61;100226.16;1679280;85;21040;-68
2021/10/28 00:56:26;;;;;;;61.95;33.65;;;;;;;2.56;100.00;100227.97;1679472;85;20953;-67
2021/10/28 00:58:53;;;;;;;68.22;35.60;;;;;;;2.66;100.00;100224.59;1679600;85;20867;-67
2021/10/28 01:01:21;;;;;;;73.15;37.03;;;;;;;2.74;100.00;100216.59;1679285;85;22330;-67
2021/10/28 01:03:47;;;;;;;60.48;32.63;;;;;;;2.83;100.00;100215.09;1679373;85;20993;-67
2021/10/28 01:06:14;;;;;;;61.25;31.73;;;;;;;2.89;100.00;100224.39;1679346;85;20906;-67
2021/10/28 01:08:43;;;;;;;61.55;32.13;;;;;;;2.97;100.00;100225.32;1679366;85;20953;-67
2021/10/28 01:11:11;;;;;;;68.07;34.75;;;;;;;3.04;100.00;100222.44;1679328;85;20874;-68
2021/10/28 01:13:38;;;;;;;72.15;34.95;;;;;;;3.07;100.00;100217.86;1679296;85;21769;-67
2021/10/28 01:16:06;;;;;;;66.65;36.70;;;;;;;3.11;100.00;100216.30;1679220;85;20892;-68
2021/10/28 01:18:34;;;;;;;71.20;38.28;;;;;;;3.15;100.00;100213.91;1659591;85;20958;-67
2021/10/28 01:21:00;;;;;;;64.82;35.20;;;;;;;3.17;100.00;100205.80;1679523;85;20909;-68
2021/10/28 01:23:27;;;;;;;68.97;37.08;;;;;;;3.18;100.00;100204.73;1679406;85;21500;-67
2021/10/28 01:25:57;;;;;;;73.10;37.75;;;;;;;3.20;100.00;100199.87;1678795;85;21051;-67
2021/10/28 01:28:26;;;;;;;59.65;33.10;;;;;;;3.22;100.00;100203.69;1679833;85;20905;-67
2021/10/28 01:30:56;;;;;;;61.63;30.95;;;;;;;3.26;100.00;100214.33;1659743;85;21453;-67
2021/10/28 01:33:23;;;;;;;57.30;32.13;;;;;;;3.26;100.00;100216.50;1679579;85;21441;-67
2021/10/28 01:35:50;;;;;;;60.12;30.57;;;;;;;3.26;100.00;100222.47;1679815;85;21461;-67
2021/10/28 01:38:18;;;;;;;68.22;36.73;;;;;;;3.22;100.00;100216.72;1679472;85;21577;-67
2021/10/28 01:41:01;;;;;;;63.30;36.10;;;;;;;3.22;100.00;100219.97;1679452;85;21603;-68
2021/10/28 01:43:30;;;;;;;73.10;37.60;;;;;;;3.23;100.00;100212.11;1679720;85;21551;-68
2021/10/28 01:45:57;;;;;;;69.10;36.65;;;;;;;3.27;100.00;100205.93;1679386;85;20997;-68
2021/10/28 01:48:24;;;;;;;69.15;36.20;;;;;;;3.28;100.00;100199.97;1679584;85;20942;-68
2021/10/28 01:50:51;;;;;;;74.32;37.48;;;;;;;3.33;100.00;100197.86;1679415;85;21789;-67
2021/10/28 01:53:19;;;;;;;68.52;35.30;;;;;;;3.34;100.00;100187.28;1674680;85;20958;-67
2021/10/28 01:55:46;;;;;;;76.30;37.23;;;;;;;3.37;100.00;100191.67;1669355;85;21061;-67
2021/10/28 01:58:12;;;;;;;68.87;36.48;;;;;;;3.41;100.00;100196.06;1665558;85;20918;-67
2021/10/28 02:00:41;;;;;;;69.70;35.50;;;;;;;3.43;100.00;100197.45;1665601;85;20957;-67
2021/10/28 02:03:08;;;;;;;67.80;36.73;;;;;;;3.46;100.00;100192.87;1672031;85;21485;-69
2021/10/28 02:05:34;;;;;;;65.57;36.83;;;;;;;3.47;100.00;100197.73;1672240;84;20906;-68
2021/10/28 02:08:01;;;;;;;61.23;34.27;;;;;;;3.48;100.00;100195.30;1679217;85;20913;-67
2021/10/28 02:10:28;;;;;;;56.28;31.95;;;;;;;3.49;100.00;100200.48;1674592;85;20902;-67
2021/10/28 02:12:56;;;;;;;63.98;35.20;;;;;;;3.49;100.00;100197.77;1677049;85;20970;-67
2021/10/28 02:15:23;;;;;;;64.20;32.83;;;;;;;3.48;100.00;100202.91;1675174;85;21122;-67
2021/10/28 02:17:50;;;;;;;58.58;34.23;;;;;;;3.51;100.00;100205.66;1662030;86;21024;-67
2021/10/28 02:20:17;;;;;;;61.63;36.15;;;;;;;3.50;100.00;100193.98;1672612;85;21041;-67
2021/10/28 02:22:45;;;;;;;64.55;36.10;;;;;;;3.52;100.00;100188.30;1679212;85;20966;-67
2021/10/28 02:25:12;;;;;;;69.45;36.60;;;;;;;3.55;100.00;100186.43;1679356;85;20958;-67
2021/10/28 02:27:39;;;;;;;64.17;36.08;;;;;;;3.56;100.00;100178.57;1666594;85;21069;-67
2021/10/28 02:30:08;;;;;;;60.92;34.20;;;;;;;3.60;100.00;100189.20;1670483;85;21521;-67
2021/10/28 02:32:35;;;;;;;66.25;35.40;;;;;;;3.62;100.00;100182.45;1672113;85;20957;-67
2021/10/28 02:35:01;;;;;;;71.90;37.48;;;;;;;3.66;100.00;100190.91;1671476;85;20918;-67
2021/10/28 02:37:28;;;;;;;65.00;35.38;;;;;;;3.69;100.00;100199.08;1672884;85;20961;-67
2021/10/28 02:39:55;;;;;;;67.35;35.68;;;;;;;3.70;100.00;100192.58;1672489;85;21197;-67
2021/10/28 02:42:21;;;;;;;61.60;34.00;;;;;;;3.71;100.00;100197.75;1671920;85;21417;-67
2021/10/28 02:44:49;;;;;;;71.65;34.33;;;;;;;3.72;100.00;100197.21;1679246;85;21025;-67
2021/10/28 02:47:16;;;;;;;59.88;33.70;;;;;;;3.73;100.00;100198.31;1672004;85;20998;-67
2021/10/28 02:49:43;;;;;;;65.87;34.95;;;;;;;3.72;100.00;100198.03;1667227;85;20902;-67
2021/10/28 02:52:10;;;;;;;62.48;33.58;;;;;;;3.71;100.00;100193.67;1677272;85;21290;-67
2021/10/28 02:54:38;;;;;;;68.57;34.35;;;;;;;3.70;100.00;100206.97;1679498;85;21013;-67
2021/10/28 02:57:07;;;;;;;60.95;34.13;;;;;;;3.64;100.00;100206.09;1679565;85;20950;-67
2021/10/28 02:59:34;;;;;;;56.40;32.85;;;;;;;3.65;100.00;100210.45;1679596;85;21465;-67
2021/10/28 03:02:01;;;;;;;66.33;36.77;;;;;;;3.63;100.00;100206.34;1679387;85;20961;-67
2021/10/28 03:04:29;;;;;;;70.75;37.65;;;;;;;3.59;100.00;100201.96;1679372;85;21138;-68
2021/10/28 03:06:56;;;;;;;70.90;38.17;;;;;;;3.59;100.00;100191.09;1679370;85;21001;-68
2021/10/28 03:09:26;;;;;;;63.42;36.90;;;;;;;3.62;100.00;100185.70;1679444;85;20910;-69
2021/10/28 03:11:59;;;;;;;65.08;35.92;;;;;;;3.63;100.00;100185.44;1679525;85;20906;-68
2021/10/28 03:14:31;;;;;;;67.20;37.93;;;;;;;3.65;100.00;100179.22;1677327;85;21009;-68
2021/10/28 03:17:13;;;;;;;61.63;35.17;;;;;;;3.67;100.00;100183.04;1678394;84;21167;-68
2021/10/28 03:27:22;;;;;;;64.32;36.58;;;;;;;3.69;100.00;100189.03;1653802;85;20986;-68
2021/10/28 03:29:48;;;;;;;66.28;37.00;;;;;;;3.70;100.00;100193.93;1651901;85;21129;-67
2021/10/28 03:32:15;;;;;;;64.90;36.20;;;;;;;3.71;100.00;100188.25;1651874;87;20862;-67
2021/10/28 03:34:43;;;;;;;65.75;35.03;;;;;;;3.74;100.00;100193.70;1652087;86;21444;-67
2021/10/28 03:42:44;;;;;;;60.23;35.35;;;;;;;3.77;100.00;100202.16;1651822;87;21094;-67
2021/10/28 03:55:09;;;;;;;67.27;37.30;;;;;;;3.75;100.00;100193.45;1649871;87;21167;-68
2021/10/28 04:08:34;;;;;;;66.05;35.55;;;;;;;3.83;100.00;100179.41;1645711;87;21228;-67
2021/10/28 04:16:38;;;;;;;55.73;32.80;;;;;;;3.87;100.00;100189.23;1655292;85;20965;-67
2021/10/28 04:29:38;;;;;;;65.97;34.70;;;;;;;4.01;100.00;100164.66;1664242;85;21520;-67
2021/10/28 04:32:09;;;;;;;61.30;32.75;;;;;;;4.06;100.00;100166.56;1663422;85;21140;-68
2021/10/28 04:34:41;;;;;;;61.40;34.88;;;;;;;4.09;100.00;100171.48;1656997;85;21137;-67
2021/10/28 04:37:09;;;;;;;59.03;34.23;;;;;;;4.17;100.00;100175.09;1664442;85;21527;-68
2021/10/28 04:39:41;;;;;;;66.47;33.77;;;;;;;4.22;100.00;100177.32;1656663;85;21104;-68
2021/10/28 04:42:15;;;;;;;52.70;32.95;;;;;;;4.28;100.00;100177.64;1636980;86;21500;-67
2021/10/28 04:44:51;;;;;;;59.45;33.38;;;;;;;4.36;100.00;100179.61;1664163;85;21013;-67
2021/10/28 04:47:19;;;;;;;54.10;31.48;;;;;;;4.40;100.00;100174.75;1666199;85;21144;-69
2021/10/28 04:49:47;;;;;;;62.48;32.60;;;;;;;4.47;100.00;100176.72;1663709;85;21020;-67
2021/10/28 04:52:16;;;;;;;57.35;32.85;;;;;;;4.51;100.00;100171.58;1664434;85;20985;-67
2021/10/28 04:54:46;;;;;;;57.60;33.95;;;;;;;4.56;100.00;100167.53;1667919;85;21053;-69
2021/10/28 04:57:17;;;;;;;52.08;31.15;;;;;;;4.61;100.00;100172.47;1664728;85;20909;-67
2021/10/28 04:59:48;;;;;;;58.38;32.83;;;;;;;4.64;100.00;100167.84;1667345;85;21337;-68
2021/10/28 05:02:18;;;;;;;58.92;32.00;;;;;;;4.70;100.00;100169.23;1663812;85;21057;-68
2021/10/28 05:04:49;;;;;;;52.58;26.82;;;;;;;4.74;100.00;100172.53;1667513;85;21033;-67
2021/10/28 05:07:31;;;;;;;53.83;31.02;;;;;;;4.82;99.97;100171.22;1663860;85;21010;-67
2021/10/28 05:09:58;;;;;;;47.00;28.62;;;;;;;4.82;99.97;100171.22;1663553;85;20914;-67
2021/10/28 05:12:29;;;;;;;62.27;33.00;;;;;;;4.85;99.96;100172.06;1644894;85;21037;-68
2021/10/28 05:15:01;;;;;;;53.83;27.93;;;;;;;4.89;99.80;100165.83;1663660;85;21558;-67
2021/10/28 05:17:31;;;;;;;53.80;31.30;;;;;;;4.94;99.68;100171.84;1665245;85;21017;-69
2021/10/28 05:20:01;;;;;;;47.88;27.32;;;;;;;5.04;99.43;100177.34;1666163;85;21013;-66
2021/10/28 05:22:39;;;;;;;57.30;31.90;;;;;;;5.04;99.43;100177.34;1664156;85;20870;-66
2021/10/28 05:25:12;;;;;;;57.70;31.17;;;;;;;5.13;99.30;100175.76;1666756;85;21160;-69
2021/10/28 05:27:41;;;;;;;56.58;30.17;;;;;;;5.18;98.81;100181.23;1663754;85;21005;-66
2021/10/28 05:30:11;;;;;;;48.83;29.37;;;;;;;5.23;98.62;100182.59;1667393;85;21020;-66
2021/10/28 05:32:40;;;;;;;52.90;31.23;;;;;;;5.28;98.49;100181.25;1675084;83;20942;-67
2021/10/28 05:35:11;;;;;;;49.95;28.10;;;;;;;5.33;98.41;100178.27;1660035;85;20957;-67
2021/10/28 05:37:45;;;;;;;56.68;31.25;;;;;;;5.37;98.23;100194.36;1678800;85;21164;-68
2021/10/28 05:40:13;;;;;;;54.38;29.80;;;;;;;5.42;98.01;100191.66;1679172;85;21064;-68
2021/10/28 05:42:49;;;;;;;50.58;30.02;;;;;;;5.44;97.72;100186.22;1679531;85;20981;-68
2021/10/28 05:45:20;;;;;;;59.40;31.95;;;;;;;5.48;97.58;100194.13;1678844;85;20942;-68
2021/10/28 05:47:52;;;;;;;54.70;30.35;;;;;;;5.52;97.32;100194.42;1678990;85;20922;-67
2021/10/28 05:50:21;;;;;;;57.08;30.72;;;;;;;5.52;97.32;100194.42;1679026;85;21169;-68
2021/10/28 05:52:56;;;;;;;54.33;29.32;;;;;;;5.54;97.31;100198.52;1652772;85;21489;-68
2021/10/28 05:55:28;;;;;;;58.52;31.20;;;;;;;5.57;97.03;100207.52;1650428;86;20966;-66
2021/10/28 05:57:59;;;;;;;52.33;30.72;;;;;;;5.61;96.93;100210.53;1641072;86;21003;-66
2021/10/28 06:00:27;;;;;;;51.00;30.82;;;;;;;5.64;96.90;100204.55;1654308;86;20941;-66
2021/10/28 06:03:01;;;;;;;49.18;29.77;;;;;;;5.68;96.79;100203.47;1667763;85;21536;-66
2021/10/28 06:05:31;;;;;;;47.78;28.30;;;;;;;5.73;96.66;100211.66;1658757;86;20957;-67
2021/10/28 06:08:04;;;;;;;49.67;29.48;;;;;;;5.77;96.62;100216.84;1664682;85;20941;-67
2021/10/28 06:10:39;;;;;;;55.23;30.25;;;;;;;5.80;96.60;100214.38;1658271;85;20946;-70
2021/10/28 06:13:04;;;;;;;51.37;30.48;;;;;;;5.84;96.73;100211.94;1650851;86;20966;-67
2021/10/28 06:15:36;;;;;;;54.93;31.42;;;;;;;5.90;96.38;100212.26;1641690;86;21488;-67
2021/10/28 06:20:48;;;;;;;57.53;30.57;;;;;;;6.00;95.88;100214.19;1651894;86;20905;-66
2021/10/28 06:23:14;;;;;;;48.00;27.20;;;;;;;6.03;95.69;100212.30;1655091;85;21477;-67
2021/10/28 06:25:42;;;;;;;51.23;29.40;;;;;;;6.08;95.63;100216.39;1648296;86;21556;-67
2021/10/28 06:28:13;;;;;;;56.53;30.55;;;;;;;6.13;95.45;100210.95;1646673;86;21524;-68
2021/10/28 06:30:45;;;;;;;47.55;29.07;;;;;;;6.15;95.30;100206.05;1616214;87;21040;-74
2021/10/28 06:33:26;;;;;;;49.27;29.67;;;;;;;6.18;95.01;100204.14;1614923;88;21530;-71
2021/10/28 06:35:50;;;;;;;53.33;30.27;;;;;;;6.21;94.90;100206.33;1613509;88;21031;-70
2021/10/28 06:38:21;;;;;;;53.05;29.42;;;;;;;6.24;94.84;100203.88;1595209;88;20983;-70
2021/10/28 06:40:49;;;;;;;54.70;29.30;;;;;;;6.29;94.60;100203.06;1614858;88;21575;-70
2021/10/28 06:43:22;;;;;;;50.60;28.73;;;;;;;6.32;94.48;100205.25;1615068;88;21054;-68
2021/10/28 06:45:51;;;;;;;49.85;29.60;;;;;;;6.38;94.55;100205.50;1615532;88;21027;-70
2021/10/28 06:48:19;;;;;;;45.60;26.65;;;;;;;6.44;94.21;100200.86;1615939;88;21068;-71
2021/10/28 06:50:53;;;;;;;46.75;27.73;;;;;;;6.50;94.07;100203.32;1615652;87;21066;-71
2021/10/28 06:53:29;;;;;;;50.43;28.65;;;;;;;6.53;94.13;100204.14;1618131;88;21814;-71
2021/10/28 07:04:20;;;;;;;49.42;28.05;;;;;;;6.79;93.44;100215.05;1625122;87;20975;-68
2021/10/28 07:06:50;;;;;;;42.25;26.00;;;;;;;6.86;93.11;100206.03;1625002;88;21174;-67
2021/10/28 07:09:26;;;;;;;50.50;26.93;;;;;;;6.93;92.95;100212.03;1621598;88;21037;-68
2021/10/28 07:14:32;;;;;;;52.45;27.60;;;;;;;7.05;92.62;100210.34;1541847;89;20991;-70
2021/10/28 07:17:31;;;;;;;44.08;26.40;;;;;;;7.11;92.61;100212.78;1592768;89;21499;-70
2021/10/28 07:20:15;;;;;;;45.45;26.48;;;;;;;7.18;92.31;100217.41;1613035;88;20903;-72
2021/10/28 07:22:57;;;;;;;46.42;26.07;;;;;;;7.29;91.98;100219.57;1630742;86;20876;-72
2021/10/28 07:28:12;;;;;;;48.68;27.15;;;;;;;7.57;91.88;100215.35;1616578;88;21094;-74
2021/10/28 07:55:32;;;;;;;51.55;27.27;;;;;;;8.39;87.87;100207.52;1653454;85;21450;-86
2021/10/28 08:00:29;;;;;;;44.42;25.00;;;;;;;8.46;87.61;100215.66;1593548;87;21176;-78
2021/10/28 08:22:06;;;;;;;39.53;23.12;;;;;;;9.22;86.34;100184.81;1651935;85;21568;-77
2021/10/28 08:30:02;;;;;;;42.27;22.05;;;;;;;9.85;83.80;100179.03;1667643;86;20949;-73
2021/10/28 08:32:30;;;;;;;39.25;22.75;;;;;;;10.09;82.54;100169.37;1656851;85;21002;-73
2021/10/28 08:35:01;;;;;;;38.50;21.75;;;;;;;10.28;81.57;100163.09;1658500;86;21040;-71
2021/10/28 08:37:59;;;;;;;34.63;20.95;;;;;;;10.43;81.22;100168.30;1647270;86;20950;-74
2021/10/28 08:40:09;;;;;;;33.23;20.25;;;;;;;10.61;80.12;100161.14;1649676;85;21245;-76
2021/10/28 08:42:50;;;;;;;41.80;21.55;;;;;;;10.76;80.03;100152.64;1651589;86;21010;-76
2021/10/28 08:45:19;;;;;;;34.27;20.17;;;;;;;10.93;79.06;100155.63;1665916;86;21579;-79
2021/10/28 08:47:56;;;;;;;36.17;21.93;;;;;;;11.04;77.87;100149.35;1667725;85;20913;-77
2021/10/28 08:50:41;;;;;;;34.85;20.77;;;;;;;11.07;77.16;100152.31;1667677;85;20901;-76
2021/10/28 08:53:19;;;;;;;38.20;21.70;;;;;;;11.08;77.01;100159.43;1667464;85;21161;-72
2021/10/28 08:55:45;;;;;;;37.55;19.65;;;;;;;11.12;77.08;100168.70;1664729;85;22342;-82
2021/10/28 09:24:23;;;;;;;32.80;19.15;;;;;;;11.99;72.58;100164.96;1661870;85;21001;-72
2021/10/28 09:27:11;;;;;;;31.80;18.07;;;;;;;12.11;72.64;100169.36;1679038;85;20910;-72
2021/10/28 09:52:08;;;;;;;28.98;16.10;;;;;;;12.60;69.31;100150.27;1688610;85;20965;-91
2021/10/28 10:00:20;;;;;;;28.10;16.62;;;;;;;12.60;68.77;100166.80;1660027;85;20909;-73
2021/10/28 10:02:56;;;;;;;26.83;15.37;;;;;;;12.61;68.76;100167.05;1679877;85;21066;-74
2021/10/28 10:05:29;;;;;;;33.90;15.88;;;;;;;12.61;68.73;100165.10;1667819;85;20910;-75
2021/10/28 10:08:00;;;;;;;29.05;15.58;;;;;;;12.60;68.92;100159.91;1662159;85;21552;-73
2021/10/28 10:10:30;;;;;;;34.25;16.55;;;;;;;12.64;68.79;100146.58;1674339;85;21536;-73
2021/10/28 10:12:57;;;;;;;30.97;15.58;;;;;;;12.81;68.89;100142.52;1668382;85;21567;-73
2021/10/28 10:15:28;;;;;;;29.45;16.07;;;;;;;13.02;67.87;100137.27;1679398;84;21104;-74
2021/10/28 10:18:07;;;;;;;27.05;15.80;;;;;;;13.23;67.28;100135.36;1673793;85;20989;-75
2021/10/28 10:20:50;;;;;;;25.80;13.78;;;;;;;13.40;66.19;100125.73;1660735;85;21020;-75
2021/10/28 12:44:30;;;;;;;20.05;11.78;;;;;;;15.20;59.17;100145.47;1682074;85;20908;-75
2021/10/28 13:28:22;;;;;;;29.02;14.18;;;;;;;13.68;64.35;100154.69;1687356;85;21002;-73
2021/10/28 13:52:40;;;;;;;22.25;11.80;;;;;;;13.33;65.99;100168.94;1705062;83;20900;-78
2021/10/28 14:25:27;;;;;;;33.30;14.47;;;;;;;12.91;67.81;100162.09;1687342;83;20963;-73
2021/10/28 15:29:15;;;;;;;69.58;29.48;;;;;;;12.41;70.97;100220.67;1742387;81;20935;-86
2021/10/28 15:31:42;;;;;;;119.02;50.12;;;;;;;12.40;71.11;100223.17;1732463;81;22243;-81
2021/10/28 15:36:47;;;;;;;108.87;45.98;;;;;;;12.42;71.20;100218.98;1723565;81;21803;-90
2021/10/28 16:22:13;;;;;;;32.67;14.75;;;;;;;12.25;73.08;100268.39;1751641;81;20943;-77
2021/10/28 16:24:39;;;;;;;28.67;13.45;;;;;;;12.24;73.14;100278.58;1752618;81;21525;-83
2021/10/28 16:27:06;;;;;;;27.95;13.60;;;;;;;12.22;73.45;100270.38;1764041;81;20995;-75
2021/10/28 16:29:33;;;;;;;35.28;15.58;;;;;;;12.20;73.60;100280.33;1757345;81;21541;-88
2021/10/28 16:32:00;;;;;;;31.12;14.60;;;;;;;12.19;73.78;100270.44;1767536;81;20891;-76
2021/10/28 16:34:27;;;;;;;33.85;13.10;;;;;;;12.17;73.83;100270.49;1772757;81;21402;-73
2021/10/28 16:36:57;;;;;;;27.30;14.28;;;;;;;12.16;74.17;100278.50;1772452;81;21552;-76
2021/10/28 16:39:24;;;;;;;32.05;14.68;;;;;;;12.14;74.18;100288.44;1772615;81;20930;-76
2021/10/28 16:41:54;;;;;;;38.13;15.38;;;;;;;12.13;74.33;100292.91;1772448;81;21386;-76
2021/10/28 16:44:21;;;;;;;41.77;18.40;;;;;;;12.11;74.35;100290.46;1772434;81;20835;-71
2021/10/28 16:46:49;;;;;;;36.25;16.20;;;;;;;12.10;74.50;100299.02;1772431;79;20890;-77
2021/10/28 16:49:15;;;;;;;48.58;20.77;;;;;;;12.07;74.80;100287.25;1767473;81;20995;-76
2021/10/28 16:51:43;;;;;;;40.73;19.27;;;;;;;12.04;74.92;100295.56;1758433;81;21021;-84
2021/10/28 16:54:09;;;;;;;42.65;19.82;;;;;;;12.02;75.07;100298.37;1758591;81;21502;-80
2021/10/28 16:56:36;;;;;;;48.58;19.48;;;;;;;12.00;75.10;100297.86;1737253;82;20956;-85
2021/10/28 16:59:03;;;;;;;47.73;19.60;;;;;;;11.98;75.18;100297.34;1758840;81;20975;-82
2021/10/28 17:01:30;;;;;;;49.77;19.90;;;;;;;11.97;75.31;100297.09;1749171;81;21424;-75
2021/10/28 17:03:57;;;;;;;44.67;21.48;;;;;;;11.94;75.38;100299.08;1727732;83;21149;-80
2021/10/28 17:06:23;;;;;;;46.10;20.45;;;;;;;11.90;75.56;100304.38;1726808;83;21499;-83
2021/10/28 17:08:55;;;;;;;37.80;18.40;;;;;;;11.88;75.84;100295.62;1726661;83;20919;-78
2021/10/28 17:11:19;;;;;;;36.80;16.93;;;;;;;11.86;76.01;100301.98;1713111;83;20955;-87
2021/10/28 17:13:47;;;;;;;34.10;15.45;;;;;;;11.84;76.39;100303.67;1724392;83;20951;-84
2021/10/28 17:16:13;;;;;;;24.20;14.30;;;;;;;11.84;77.44;100311.92;1728485;83;21007;-88
2021/10/28 17:18:40;;;;;;;28.07;14.38;;;;;;;11.87;77.20;100315.44;1728365;83;21490;-84
2021/10/28 17:21:06;;;;;;;26.93;13.70;;;;;;;11.86;77.21;100306.11;1727136;83;20971;-78
2021/10/28 17:23:36;;;;;;;28.42;14.45;;;;;;;11.86;77.14;100308.30;1727838;83;20983;-74
2021/10/28 17:26:03;;;;;;;24.80;13.22;;;;;;;11.85;77.10;100319.61;1727777;82;21013;-89
2021/10/28 17:28:32;;;;;;;30.95;16.00;;;;;;;11.81;77.44;100319.41;1727851;83;20931;-81
2021/10/28 17:31:01;;;;;;;29.52;15.75;;;;;;;11.79;77.46;100318.90;1727991;83;22078;-87
2021/10/28 17:33:27;;;;;;;25.17;15.20;;;;;;;11.76;78.39;100318.10;1725653;83;20943;-77
2021/10/28 17:35:55;;;;;;;33.58;16.40;;;;;;;11.78;79.17;100328.27;1712385;83;21003;-79
2021/10/28 17:38:23;;;;;;;30.30;16.65;;;;;;;11.82;78.60;100331.23;1699052;84;20990;-80
2021/10/28 17:40:49;;;;;;;25.97;15.25;;;;;;;11.82;78.47;100331.23;1699928;83;20896;-76
2021/10/28 17:43:18;;;;;;;35.33;17.40;;;;;;;11.83;79.10;100336.98;1726700;83;21069;-77
2021/10/28 17:45:44;;;;;;;31.90;16.67;;;;;;;11.82;78.19;100337.55;1726756;83;21514;-77
2021/10/28 17:48:11;;;;;;;30.75;16.25;;;;;;;11.78;78.06;100339.27;1726612;81;21034;-78
2021/10/28 17:50:38;;;;;;;32.98;16.67;;;;;;;11.75;78.73;100337.66;1718779;83;20935;-80
2021/10/28 17:53:05;;;;;;;31.85;17.23;;;;;;;11.75;78.46;100335.72;1716401;83;20936;-77
2021/10/28 17:55:32;;;;;;;29.98;16.50;;;;;;;11.73;78.08;100339.89;1716734;83;21469;-78
2021/10/28 17:57:59;;;;;;;34.73;18.15;;;;;;;11.67;78.27;100334.23;1716248;83;20964;-74
2021/10/28 18:00:26;;;;;;;31.42;17.60;;;;;;;11.66;78.80;100340.30;1715830;83;21031;-81
2021/10/28 18:02:54;;;;;;;26.70;15.55;;;;;;;11.65;79.20;100341.97;1716405;83;21012;-85
2021/10/28 18:05:23;;;;;;;34.20;16.07;;;;;;;11.63;79.24;100333.21;1716440;83;20964;-76
2021/10/28 18:07:50;;;;;;;28.38;16.12;;;;;;;11.62;79.22;100337.89;1715948;82;21221;-79
2021/10/28 18:10:17;;;;;;;34.38;16.20;;;;;;;11.61;79.39;100332.70;1721977;82;20859;-81
2021/10/28 18:12:45;;;;;;;31.40;15.72;;;;;;;11.59;79.33;100332.44;1732812;82;20988;-83
2021/10/28 18:15:11;;;;;;;35.68;16.93;;;;;;;11.57;79.23;100328.36;1717086;83;20981;-85
2021/10/28 18:17:39;;;;;;;33.38;16.93;;;;;;;11.56;80.15;100333.05;1716591;83;20993;-73
2021/10/28 18:20:06;;;;;;;29.75;15.90;;;;;;;11.58;80.23;100334.94;1716600;83;21474;-87
2021/10/28 18:22:37;;;;;;;31.80;17.80;;;;;;;11.59;79.81;100333.00;1716488;83;21015;-78
2021/10/28 18:25:06;;;;;;;30.85;17.10;;;;;;;11.55;79.63;100334.75;1716257;83;21487;-76
2021/10/28 18:27:33;;;;;;;28.98;16.82;;;;;;;11.50;79.24;100332.91;1738737;81;20974;-81
2021/10/28 18:30:01;;;;;;;26.17;15.40;;;;;;;11.48;79.81;100332.95;1748134;82;20896;-82
2021/10/28 18:32:28;;;;;;;35.80;17.45;;;;;;;11.43;80.16;100339.92;1758465;81;21923;-83
2021/10/28 18:34:55;;;;;;;30.45;16.17;;;;;;;11.40;80.12;100341.34;1747961;82;21466;-79
2021/10/28 18:37:24;;;;;;;32.05;17.20;;;;;;;11.39;80.29;100344.39;1758471;81;20970;-81
2021/10/28 18:39:52;;;;;;;31.20;16.95;;;;;;;11.36;80.20;100346.37;1742396;81;20983;-81
2021/10/28 18:42:21;;;;;;;28.95;16.52;;;;;;;11.34;80.16;100359.59;1701756;83;20908;-71
2021/10/28 18:44:55;;;;;;;28.60;16.73;;;;;;;11.32;80.17;100356.33;1689543;85;21122;-79
2021/10/28 18:47:26;;;;;;;33.33;18.50;;;;;;;11.30;80.44;100352.51;1688565;83;21549;-72
2021/10/28 18:50:00;;;;;;;31.27;16.77;;;;;;;11.28;80.45;100354.74;1689279;85;20990;-79
2021/10/28 18:52:32;;;;;;;31.87;16.90;;;;;;;11.25;80.29;100362.22;1688955;85;20923;-77
2021/10/28 18:55:03;;;;;;;29.30;17.20;;;;;;;11.24;80.28;100365.52;1689722;85;21004;-77
2021/10/28 18:57:35;;;;;;;28.57;15.98;;;;;;;11.21;80.31;100359.25;1689433;85;21223;-82
2021/10/28 19:00:12;;;;;;;34.88;17.70;;;;;;;11.18;80.45;100363.16;1665976;85;21011;-82
2021/10/28 19:02:38;;;;;;;31.90;16.93;;;;;;;11.15;80.50;100361.83;1689161;85;20872;-82
2021/10/28 19:05:06;;;;;;;36.35;18.55;;;;;;;11.12;80.63;100367.91;1689712;85;20934;-81
2021/10/28 19:07:34;;;;;;;36.38;18.23;;;;;;;11.09;80.69;100363.58;1689321;85;20955;-77
2021/10/28 19:10:01;;;;;;;34.38;17.65;;;;;;;11.06;80.91;100370.48;1693276;83;21130;-77
2021/10/28 19:12:27;;;;;;;36.33;19.52;;;;;;;11.04;81.07;100369.97;1701918;83;20896;-77
2021/10/28 19:14:55;;;;;;;39.88;20.37;;;;;;;11.01;81.14;100368.38;1689193;85;20983;-83
2021/10/28 19:17:21;;;;;;;37.03;19.62;;;;;;;11.00;81.25;100375.80;1689545;85;20932;-83
2021/10/28 19:19:48;;;;;;;34.83;18.50;;;;;;;10.99;81.32;100374.72;1689417;85;20936;-82
2021/10/28 19:22:14;;;;;;;36.77;19.95;;;;;;;10.97;81.45;100376.98;1689531;85;21736;-81
2021/10/28 19:24:41;;;;;;;36.17;17.77;;;;;;;10.96;81.63;100374.80;1689116;85;21422;-83
2021/10/28 19:27:07;;;;;;;36.40;19.23;;;;;;;10.96;81.87;100387.16;1689490;85;20975;-82
2021/10/28 19:29:41;;;;;;;37.93;20.48;;;;;;;10.94;82.00;100382.52;1689117;85;20951;-79
2021/10/28 19:32:10;;;;;;;35.60;18.95;;;;;;;10.93;82.08;100380.06;1688818;85;20896;-80
2021/10/28 19:34:39;;;;;;;34.65;20.32;;;;;;;10.90;82.23;100386.97;1689333;85;21114;-82
2021/10/28 19:37:16;;;;;;;34.48;21.27;;;;;;;10.89;82.30;100385.34;1689363;84;21006;-82
2021/10/28 19:42:28;;;;;;;35.98;19.32;;;;;;;10.85;82.57;100389.79;1703886;83;20912;-82
2021/10/28 19:47:25;;;;;;;42.20;20.08;;;;;;;10.82;82.76;100398.62;1689099;83;21110;-80
2021/10/28 19:49:51;;;;;;;41.48;20.72;;;;;;;10.80;82.82;100409.09;1689300;84;21497;-79
2021/10/28 19:52:17;;;;;;;41.77;21.20;;;;;;;10.79;82.99;100408.83;1691273;84;20940;-81
2021/10/28 19:54:47;;;;;;;51.83;24.52;;;;;;;10.77;83.03;100408.30;1691162;84;21506;-80
2021/10/28 19:57:25;;;;;;;53.33;24.32;;;;;;;10.76;83.16;100412.17;1662315;84;20951;-79
2021/10/28 19:59:52;;;;;;;50.70;23.22;;;;;;;10.75;83.22;100414.09;1673322;83;21835;-81
2021/10/28 20:02:27;;;;;;;48.85;22.75;;;;;;;10.74;83.35;100411.64;1707576;83;20943;-81
2021/10/28 20:20:49;;;;;;;39.85;21.40;;;;;;;10.67;83.72;100413.94;1710588;83;20928;-83
2021/10/28 20:23:15;;;;;;;37.05;20.52;;;;;;;10.66;83.77;100417.23;1717344;83;20944;-82
2021/10/28 20:25:42;;;;;;;39.63;21.97;;;;;;;10.64;83.87;100416.72;1707682;82;21717;-84
2021/10/28 20:28:10;;;;;;;46.55;22.58;;;;;;;10.65;83.90;100412.05;1714253;83;21549;-84
2021/10/28 20:30:48;;;;;;;46.83;23.87;;;;;;;10.64;83.92;100420.02;1714237;83;21016;-83